createdAt,value
2022-08-24T00:00:16.947Z,39.64
2022-08-24T00:01:16.943Z,39.96
2022-08-24T00:02:16.997Z,39.64
2022-08-24T00:03:17.074Z,39.64
2022-08-24T00:04:17.402Z,39.80
2022-08-24T00:05:16.902Z,39.80
2022-08-24T00:06:16.897Z,39.48
2022-08-24T00:07:27.316Z,39.32
2022-08-24T00:08:17.888Z,39.80
2022-08-24T00:09:16.866Z,39.16
2022-08-24T00:10:16.858Z,39.32
2022-08-24T00:11:16.843Z,39.64
2022-08-24T00:12:16.833Z,39.16
2022-08-24T00:13:16.845Z,39.32
2022-08-24T00:14:16.811Z,38.99
2022-08-24T00:15:16.804Z,39.48
2022-08-24T00:16:16.858Z,39.96
2022-08-24T00:17:16.778Z,39.80
2022-08-24T00:18:16.785Z,39.48
2022-08-24T00:19:16.763Z,39.64
2022-08-24T00:20:16.752Z,40.28
2022-08-24T00:21:16.745Z,39.80
2022-08-24T00:22:16.733Z,39.32
2022-08-24T00:23:16.744Z,39.48
2022-08-24T00:24:16.713Z,39.32
2022-08-24T00:25:16.706Z,39.96
2022-08-24T00:26:16.687Z,39.80
2022-08-24T00:27:16.682Z,39.96
2022-08-24T00:28:16.691Z,39.80
2022-08-24T00:29:16.661Z,40.28
2022-08-24T00:30:16.651Z,39.80
2022-08-24T00:31:16.690Z,39.80
2022-08-24T00:32:16.641Z,39.80
2022-08-24T00:33:16.645Z,39.80
2022-08-24T00:34:16.609Z,39.96
2022-08-24T00:35:16.702Z,40.12
2022-08-24T00:36:16.599Z,39.80
2022-08-24T00:37:16.591Z,39.32
2022-08-24T00:38:16.585Z,40.12
2022-08-24T00:39:16.570Z,40.12
2022-08-24T00:40:16.584Z,39.48
2022-08-24T00:41:16.557Z,39.80
2022-08-24T00:42:16.535Z,40.28
2022-08-24T00:43:16.596Z,40.77
2022-08-24T00:44:16.520Z,39.96
2022-08-24T00:45:16.512Z,39.96
2022-08-24T00:46:16.514Z,39.80
2022-08-24T00:47:16.491Z,39.64
2022-08-24T00:48:16.474Z,39.80
2022-08-24T00:49:16.543Z,40.28
2022-08-24T00:50:16.451Z,41.25
2022-08-24T00:51:16.448Z,40.77
2022-08-24T00:52:16.478Z,40.61
2022-08-24T00:53:16.436Z,39.64
2022-08-24T00:54:16.440Z,40.44
2022-08-24T00:55:16.428Z,40.61
2022-08-24T00:56:16.400Z,40.93
2022-08-24T00:57:16.397Z,40.28
2022-08-24T00:58:17.678Z,40.93
2022-08-24T00:59:16.394Z,40.61
2022-08-24T01:00:16.361Z,40.61
2022-08-24T01:01:16.395Z,40.77
2022-08-24T01:02:16.407Z,41.25
2022-08-24T01:03:16.352Z,40.61
2022-08-24T01:04:16.324Z,40.61
2022-08-24T01:05:16.326Z,40.61
2022-08-24T01:06:16.306Z,40.44
2022-08-24T01:07:16.293Z,40.93
2022-08-24T01:08:16.303Z,40.12
2022-08-24T01:09:16.276Z,40.77
2022-08-24T01:10:16.280Z,40.61
2022-08-24T01:11:16.259Z,40.61
2022-08-24T01:12:16.255Z,40.93
2022-08-24T01:13:16.258Z,40.93
2022-08-24T01:14:16.224Z,40.61
2022-08-24T01:15:16.219Z,41.25
2022-08-24T01:16:16.252Z,40.93
2022-08-24T01:17:16.194Z,41.09
2022-08-24T01:18:16.498Z,40.77
2022-08-24T01:19:16.180Z,40.61
2022-08-24T01:20:16.166Z,41.57
2022-08-24T01:21:16.161Z,40.61
2022-08-24T01:22:16.146Z,40.12
2022-08-24T01:23:16.146Z,40.44
2022-08-24T01:24:16.326Z,40.44
2022-08-24T01:25:16.120Z,40.61
2022-08-24T01:26:16.534Z,40.44
2022-08-24T01:27:16.162Z,40.77
2022-08-24T01:28:16.089Z,40.61
2022-08-24T01:29:16.134Z,40.93
2022-08-24T01:30:16.067Z,40.28
2022-08-24T01:31:16.117Z,40.12
2022-08-24T01:32:16.063Z,39.80
2022-08-24T01:33:16.043Z,41.09
2022-08-24T01:34:16.098Z,40.61
2022-08-24T01:35:16.048Z,40.93
2022-08-24T01:36:16.010Z,40.93
2022-08-24T01:37:16.043Z,41.09
2022-08-24T01:38:16.025Z,40.93
2022-08-24T01:39:15.979Z,40.44
2022-08-24T01:40:16.055Z,41.09
2022-08-24T01:41:16.018Z,40.93
2022-08-24T01:42:15.953Z,40.93
2022-08-24T01:43:15.980Z,40.44
2022-08-24T01:44:15.936Z,40.77
2022-08-24T01:45:15.930Z,40.61
2022-08-24T01:46:16.023Z,40.61
2022-08-24T01:47:15.907Z,40.93
2022-08-24T01:48:22.816Z,40.61
2022-08-24T01:49:16.993Z,40.77
2022-08-24T01:50:15.871Z,43.34
2022-08-24T01:51:15.863Z,43.18
2022-08-24T01:52:15.853Z,42.22
2022-08-24T01:53:16.022Z,41.09
2022-08-24T01:54:15.845Z,40.77
2022-08-24T01:55:15.828Z,43.18
2022-08-24T01:56:16.829Z,42.70
2022-08-24T01:57:16.984Z,40.61
2022-08-24T01:58:15.796Z,43.34
2022-08-24T01:59:15.806Z,40.93
2022-08-24T02:00:15.777Z,41.09
2022-08-24T02:01:15.768Z,43.34
2022-08-24T02:02:15.799Z,41.25
2022-08-24T02:03:15.773Z,43.18
2022-08-24T02:04:17.782Z,43.67
2022-08-24T02:05:15.734Z,42.22
2022-08-24T02:06:15.723Z,41.89
2022-08-24T02:07:15.716Z,44.31
2022-08-24T02:08:15.704Z,41.09
2022-08-24T02:09:15.715Z,40.93
2022-08-24T02:10:15.687Z,41.73
2022-08-24T02:11:15.681Z,42.38
2022-08-24T02:12:15.669Z,43.18
2022-08-24T02:13:15.656Z,42.06
2022-08-24T02:14:15.665Z,42.38
2022-08-24T02:15:15.639Z,42.70
2022-08-24T02:16:15.670Z,43.02
2022-08-24T02:17:15.618Z,41.89
2022-08-24T02:18:15.747Z,41.41
2022-08-24T02:19:15.623Z,41.41
2022-08-24T02:20:15.587Z,43.02
2022-08-24T02:21:15.581Z,43.51
2022-08-24T02:22:15.569Z,42.86
2022-08-24T02:23:15.567Z,43.99
2022-08-24T02:24:15.564Z,40.77
2022-08-24T02:25:15.543Z,43.18
2022-08-24T02:26:15.535Z,43.51
2022-08-24T02:27:15.523Z,42.86
2022-08-24T02:28:15.513Z,41.25
2022-08-24T02:29:15.524Z,40.61
2022-08-24T02:30:15.495Z,43.51
2022-08-24T02:31:15.570Z,43.18
2022-08-24T02:32:15.475Z,43.18
2022-08-24T02:33:15.464Z,40.77
2022-08-24T02:34:15.474Z,42.22
2022-08-24T02:35:15.463Z,41.25
2022-08-24T02:36:25.418Z,42.38
2022-08-24T02:37:16.434Z,43.18
2022-08-24T02:38:15.420Z,41.57
2022-08-24T02:39:15.424Z,41.73
2022-08-24T02:40:15.414Z,42.06
2022-08-24T02:41:15.388Z,42.54
2022-08-24T02:42:15.389Z,44.47
2022-08-24T02:43:15.373Z,43.67
2022-08-24T02:44:15.380Z,43.02
2022-08-24T02:45:15.440Z,42.38
2022-08-24T02:46:15.367Z,41.73
2022-08-24T02:47:15.334Z,41.89
2022-08-24T02:48:15.484Z,43.67
2022-08-24T02:49:15.315Z,41.25
2022-08-24T02:50:15.309Z,43.02
2022-08-24T02:51:15.292Z,41.25
2022-08-24T02:52:15.282Z,43.18
2022-08-24T02:53:15.276Z,43.34
2022-08-24T02:54:15.274Z,41.25
2022-08-24T02:55:15.253Z,43.18
2022-08-24T02:56:15.251Z,41.41
2022-08-24T02:57:15.257Z,41.41
2022-08-24T02:58:15.243Z,43.02
2022-08-24T02:59:15.220Z,41.09
2022-08-24T03:00:15.219Z,41.25
2022-08-24T03:01:17.607Z,41.57
2022-08-24T03:02:15.220Z,41.09
2022-08-24T03:03:15.478Z,41.25
2022-08-24T03:04:15.175Z,41.89
2022-08-24T03:05:15.157Z,43.51
2022-08-24T03:06:15.155Z,47.70
2022-08-24T03:07:15.137Z,44.96
2022-08-24T03:08:15.149Z,41.89
2022-08-24T03:09:15.125Z,43.02
2022-08-24T03:10:15.118Z,41.89
2022-08-24T03:11:15.105Z,44.31
2022-08-24T03:12:15.091Z,44.15
2022-08-24T03:13:15.095Z,43.02
2022-08-24T03:14:15.078Z,44.63
2022-08-24T03:15:15.060Z,42.86
2022-08-24T03:16:15.157Z,41.73
2022-08-24T03:17:15.049Z,43.02
2022-08-24T03:18:15.065Z,43.51
2022-08-24T03:19:15.066Z,43.67
2022-08-24T03:20:15.022Z,43.18
2022-08-24T03:21:15.010Z,43.67
2022-08-24T03:22:15.004Z,41.89
2022-08-24T03:23:15.003Z,43.34
2022-08-24T03:24:14.983Z,41.89
2022-08-24T03:25:14.968Z,43.51
2022-08-24T03:26:14.965Z,49.79
2022-08-24T03:27:14.993Z,43.02
2022-08-24T03:28:14.961Z,42.22
2022-08-24T03:29:15.819Z,46.08
2022-08-24T03:30:14.922Z,43.83
2022-08-24T03:31:14.946Z,41.89
2022-08-24T03:32:14.904Z,42.22
2022-08-24T03:33:14.900Z,44.15
2022-08-24T03:34:14.879Z,42.38
2022-08-24T03:35:14.868Z,43.34
2022-08-24T03:36:14.862Z,44.79
2022-08-24T03:37:14.861Z,42.22
2022-08-24T03:38:14.864Z,43.67
2022-08-24T03:39:14.834Z,42.22
2022-08-24T03:40:22.520Z,45.60
2022-08-24T03:41:15.813Z,42.06
2022-08-24T03:42:14.805Z,43.51
2022-08-24T03:43:14.792Z,42.86
2022-08-24T03:44:14.797Z,43.83
2022-08-24T03:45:14.769Z,44.31
2022-08-24T03:46:14.797Z,44.15
2022-08-24T03:47:14.750Z,42.38
2022-08-24T03:48:14.746Z,47.21
2022-08-24T03:49:14.805Z,42.22
2022-08-24T03:50:14.723Z,44.47
2022-08-24T03:51:14.710Z,43.83
2022-08-24T03:52:14.772Z,42.22
2022-08-24T03:53:14.688Z,44.31
2022-08-24T03:54:14.697Z,44.31
2022-08-24T03:55:14.692Z,43.83
2022-08-24T03:56:14.662Z,44.31
2022-08-24T03:57:14.652Z,47.05
2022-08-24T03:58:14.646Z,44.47
2022-08-24T03:59:17.692Z,43.51
2022-08-24T04:00:14.624Z,42.38
2022-08-24T04:01:14.631Z,44.47
2022-08-24T04:02:14.816Z,43.67
2022-08-24T04:03:14.588Z,42.54
2022-08-24T04:04:14.614Z,43.34
2022-08-24T04:05:14.566Z,44.63
2022-08-24T04:06:14.565Z,43.83
2022-08-24T04:07:14.554Z,44.15
2022-08-24T04:08:14.544Z,43.51
2022-08-24T04:09:14.551Z,43.83
2022-08-24T04:10:14.569Z,43.02
2022-08-24T04:11:14.512Z,43.99
2022-08-24T04:12:14.506Z,44.96
2022-08-24T04:13:14.520Z,43.83
2022-08-24T04:14:27.767Z,47.37
2022-08-24T04:15:15.474Z,51.40
2022-08-24T04:16:14.518Z,46.41
2022-08-24T04:17:14.450Z,43.67
2022-08-24T04:18:14.472Z,43.83
2022-08-24T04:19:14.489Z,44.79
2022-08-24T04:20:14.440Z,42.86
2022-08-24T04:21:14.417Z,42.86
2022-08-24T04:22:14.423Z,45.12
2022-08-24T04:23:14.411Z,47.37
2022-08-24T04:24:14.389Z,44.79
2022-08-24T04:25:14.374Z,44.96
2022-08-24T04:26:14.444Z,51.40
2022-08-24T04:27:14.358Z,44.15
2022-08-24T04:28:14.366Z,44.79
2022-08-24T04:29:14.340Z,50.11
2022-08-24T04:30:14.591Z,45.44
2022-08-24T04:31:14.376Z,42.70
2022-08-24T04:32:14.322Z,45.44
2022-08-24T04:33:14.319Z,43.83
2022-08-24T04:34:14.300Z,45.44
2022-08-24T04:35:14.296Z,46.73
2022-08-24T04:36:14.275Z,45.28
2022-08-24T04:37:14.271Z,44.96
2022-08-24T04:38:14.270Z,46.89
2022-08-24T04:39:14.248Z,49.15
2022-08-24T04:40:14.300Z,51.56
2022-08-24T04:41:14.228Z,44.31
2022-08-24T04:42:14.223Z,44.79
2022-08-24T04:43:19.113Z,43.34
2022-08-24T04:44:15.215Z,45.76
2022-08-24T04:45:14.188Z,48.66
2022-08-24T04:46:14.251Z,46.57
2022-08-24T04:47:14.166Z,43.51
2022-08-24T04:48:14.180Z,44.79
2022-08-24T04:49:14.145Z,47.21
2022-08-24T04:50:14.146Z,42.22
2022-08-24T04:51:14.151Z,44.15
2022-08-24T04:52:14.126Z,44.15
2022-08-24T04:53:14.103Z,44.47
2022-08-24T04:54:14.118Z,45.44
2022-08-24T04:55:14.091Z,43.02
2022-08-24T04:56:14.101Z,45.92
2022-08-24T04:57:17.911Z,42.06
2022-08-24T04:58:14.307Z,43.99
2022-08-24T04:59:14.081Z,48.98
2022-08-24T05:00:14.045Z,47.86
2022-08-24T05:01:14.076Z,46.57
2022-08-24T05:02:14.080Z,49.95
2022-08-24T05:03:14.002Z,44.96
2022-08-24T05:04:14.016Z,49.79
2022-08-24T05:05:14.009Z,45.92
2022-08-24T05:06:13.986Z,49.79
2022-08-24T05:07:13.983Z,43.83
2022-08-24T05:08:13.965Z,47.53
2022-08-24T05:09:13.963Z,54.46
2022-08-24T05:10:13.944Z,45.60
2022-08-24T05:11:13.934Z,48.66
2022-08-24T05:12:13.920Z,46.41
2022-08-24T05:13:13.926Z,44.15
2022-08-24T05:14:13.919Z,46.25
2022-08-24T05:15:13.887Z,45.44
2022-08-24T05:16:14.027Z,44.31
2022-08-24T05:17:13.870Z,46.08
2022-08-24T05:18:13.863Z,45.76
2022-08-24T05:19:13.925Z,45.44
2022-08-24T05:20:13.847Z,45.76
2022-08-24T05:21:13.833Z,44.96
2022-08-24T05:22:13.856Z,43.83
2022-08-24T05:23:13.808Z,45.12
2022-08-24T05:24:13.817Z,53.50
2022-08-24T05:25:14.026Z,44.15
2022-08-24T05:26:13.785Z,43.83
2022-08-24T05:27:14.254Z,41.09
2022-08-24T05:28:13.767Z,50.27
2022-08-24T05:29:13.774Z,44.79
2022-08-24T05:30:13.745Z,43.51
2022-08-24T05:31:13.837Z,43.83
2022-08-24T05:32:13.725Z,47.53
2022-08-24T05:33:13.713Z,42.70
2022-08-24T05:34:13.718Z,49.95
2022-08-24T05:35:13.701Z,44.79
2022-08-24T05:36:13.689Z,47.05
2022-08-24T05:37:13.681Z,51.40
2022-08-24T05:38:13.667Z,45.92
2022-08-24T05:39:13.673Z,49.15
2022-08-24T05:40:13.684Z,46.08
2022-08-24T05:41:13.643Z,48.50
2022-08-24T05:42:13.637Z,50.43
2022-08-24T05:43:13.665Z,44.96
2022-08-24T05:44:13.763Z,43.83
2022-08-24T05:45:13.607Z,41.57
2022-08-24T05:46:13.629Z,46.08
2022-08-24T05:47:13.590Z,44.63
2022-08-24T05:48:13.574Z,44.79
2022-08-24T05:49:13.582Z,48.82
2022-08-24T05:50:13.555Z,50.27
2022-08-24T05:51:13.545Z,48.50
2022-08-24T05:52:13.541Z,42.38
2022-08-24T05:53:13.526Z,45.28
2022-08-24T05:54:13.526Z,48.02
2022-08-24T05:55:13.520Z,45.44
2022-08-24T05:56:13.503Z,44.79
2022-08-24T05:57:13.487Z,42.38
2022-08-24T05:58:18.539Z,45.28
2022-08-24T05:59:14.471Z,41.89
2022-08-24T06:00:13.476Z,41.73
2022-08-24T06:01:13.472Z,42.22
2022-08-24T06:02:13.565Z,44.15
2022-08-24T06:03:14.640Z,46.41
2022-08-24T06:04:13.425Z,44.96
2022-08-24T06:05:13.445Z,46.41
2022-08-24T06:06:13.442Z,41.57
2022-08-24T06:07:13.391Z,45.92
2022-08-24T06:08:13.387Z,42.06
2022-08-24T06:09:13.449Z,42.22
2022-08-24T06:10:35.456Z,49.15
2022-08-24T06:11:14.354Z,44.47
2022-08-24T06:12:13.343Z,41.25
2022-08-24T06:13:13.333Z,42.06
2022-08-24T06:14:13.358Z,49.63
2022-08-24T06:15:13.323Z,42.06
2022-08-24T06:16:21.809Z,42.70
2022-08-24T06:17:14.441Z,41.41
2022-08-24T06:18:13.327Z,41.41
2022-08-24T06:19:13.271Z,48.02
2022-08-24T06:20:13.286Z,41.25
2022-08-24T06:21:13.252Z,42.22
2022-08-24T06:22:13.242Z,45.60
2022-08-24T06:23:13.242Z,40.93
2022-08-24T06:24:13.229Z,43.67
2022-08-24T06:25:13.227Z,41.25
2022-08-24T06:26:15.843Z,41.41
2022-08-24T06:27:13.194Z,49.15
2022-08-24T06:28:13.187Z,50.27
2022-08-24T06:29:13.173Z,42.22
2022-08-24T06:30:13.180Z,47.70
2022-08-24T06:31:13.219Z,43.02
2022-08-24T06:32:13.147Z,43.51
2022-08-24T06:33:13.134Z,43.99
2022-08-24T06:34:13.135Z,46.41
2022-08-24T06:35:13.130Z,47.70
2022-08-24T06:36:13.119Z,45.12
2022-08-24T06:37:13.102Z,47.70
2022-08-24T06:38:13.089Z,43.34
2022-08-24T06:39:13.074Z,47.53
2022-08-24T06:40:13.147Z,48.18
2022-08-24T06:41:13.052Z,42.22
2022-08-24T06:42:13.054Z,43.02
2022-08-24T06:43:13.037Z,43.67
2022-08-24T06:44:13.027Z,42.22
2022-08-24T06:45:13.042Z,42.54
2022-08-24T06:46:13.069Z,46.41
2022-08-24T06:47:13.003Z,42.86
2022-08-24T06:48:12.997Z,46.73
2022-08-24T06:49:12.985Z,42.06
2022-08-24T06:50:12.972Z,45.76
2022-08-24T06:51:12.976Z,43.18
2022-08-24T06:52:12.959Z,50.43
2022-08-24T06:53:12.939Z,48.02
2022-08-24T06:54:12.931Z,42.70
2022-08-24T06:55:12.920Z,46.73
2022-08-24T06:56:12.929Z,43.51
2022-08-24T06:57:12.900Z,43.67
2022-08-24T06:58:12.898Z,44.31
2022-08-24T06:59:12.884Z,42.54
2022-08-24T07:00:12.888Z,46.08
2022-08-24T07:01:12.914Z,39.96
2022-08-24T07:02:12.854Z,44.31
2022-08-24T07:03:12.899Z,47.53
2022-08-24T07:04:12.836Z,44.79
2022-08-24T07:05:12.827Z,39.64
2022-08-24T07:06:12.830Z,38.99
2022-08-24T07:07:12.829Z,38.51
2022-08-24T07:08:12.803Z,38.67
2022-08-24T07:09:12.786Z,41.57
2022-08-24T07:10:12.781Z,45.92
2022-08-24T07:11:12.787Z,48.34
2022-08-24T07:12:12.773Z,39.32
2022-08-24T07:13:12.754Z,39.32
2022-08-24T07:14:12.750Z,45.28
2022-08-24T07:15:16.303Z,43.34
2022-08-24T07:16:12.755Z,40.44
2022-08-24T07:17:12.716Z,39.96
2022-08-24T07:18:12.705Z,43.34
2022-08-24T07:19:12.704Z,43.34
2022-08-24T07:20:12.680Z,44.15
2022-08-24T07:21:12.701Z,42.54
2022-08-24T07:22:12.732Z,42.86
2022-08-24T07:23:12.656Z,43.67
2022-08-24T07:24:12.640Z,46.41
2022-08-24T07:25:12.655Z,40.93
2022-08-24T07:26:21.125Z,48.82
2022-08-24T07:27:13.623Z,45.12
2022-08-24T07:28:12.803Z,41.57
2022-08-24T07:29:30.593Z,40.12
2022-08-24T07:30:26.983Z,45.76
2022-08-24T07:31:13.669Z,47.37
2022-08-24T07:32:12.571Z,41.57
2022-08-24T07:33:12.566Z,45.44
2022-08-24T07:34:12.555Z,41.41
2022-08-24T07:35:12.548Z,40.61
2022-08-24T07:36:12.805Z,41.25
2022-08-24T07:37:13.542Z,40.12
2022-08-24T07:38:12.526Z,41.89
2022-08-24T07:39:12.501Z,40.77
2022-08-24T07:40:12.547Z,41.25
2022-08-24T07:41:38.283Z,39.96
2022-08-24T07:42:17.396Z,43.67
2022-08-24T07:43:13.466Z,43.51
2022-08-24T07:44:12.538Z,40.44
2022-08-24T07:45:12.446Z,47.21
2022-08-24T07:46:12.498Z,38.19
2022-08-24T07:47:37.102Z,40.28
2022-08-24T07:48:14.364Z,38.35
2022-08-24T07:49:29.286Z,39.16
2022-08-24T07:50:13.405Z,42.38
2022-08-24T07:51:12.419Z,43.51
2022-08-24T07:52:12.414Z,46.73
2022-08-24T07:53:15.052Z,38.19
2022-08-24T07:54:13.352Z,35.93
2022-08-24T07:55:12.358Z,38.51
2022-08-24T07:56:12.348Z,45.60
2022-08-24T07:57:12.352Z,45.28
2022-08-24T07:58:12.321Z,39.80
2022-08-24T07:59:13.447Z,39.16
2022-08-24T08:00:12.310Z,36.58
2022-08-24T08:01:12.356Z,38.19
2022-08-24T08:02:12.341Z,41.09
2022-08-24T08:03:12.343Z,42.06
2022-08-24T08:04:12.266Z,42.22
2022-08-24T08:05:12.269Z,36.09
2022-08-24T08:06:16.335Z,42.06
2022-08-24T08:07:12.254Z,40.12
2022-08-24T08:08:12.240Z,39.16
2022-08-24T08:09:12.227Z,36.42
2022-08-24T08:10:12.215Z,41.89
2022-08-24T08:11:12.203Z,36.58
2022-08-24T08:12:12.212Z,36.90
2022-08-24T08:13:12.192Z,38.51
2022-08-24T08:14:12.273Z,46.08
2022-08-24T08:15:12.167Z,41.89
2022-08-24T08:16:12.220Z,35.93
2022-08-24T08:17:12.177Z,38.51
2022-08-24T08:18:12.138Z,34.64
2022-08-24T08:19:12.136Z,37.22
2022-08-24T08:20:12.117Z,36.58
2022-08-24T08:21:14.204Z,39.16
2022-08-24T08:22:12.115Z,42.54
2022-08-24T08:23:12.096Z,36.74
2022-08-24T08:24:12.121Z,32.87
2022-08-24T08:25:12.077Z,36.25
2022-08-24T08:26:12.063Z,34.16
2022-08-24T08:27:12.085Z,46.08
2022-08-24T08:28:25.273Z,41.89
2022-08-24T08:29:13.047Z,35.29
2022-08-24T08:30:12.063Z,40.93
2022-08-24T08:31:12.304Z,35.29
2022-08-24T08:32:12.034Z,33.84
2022-08-24T08:33:12.044Z,43.51
2022-08-24T08:34:11.991Z,43.67
2022-08-24T08:35:11.982Z,38.51
2022-08-24T08:36:12.031Z,42.70
2022-08-24T08:37:11.978Z,35.77
2022-08-24T08:38:11.958Z,41.25
2022-08-24T08:39:11.955Z,38.35
2022-08-24T08:40:11.979Z,41.89
2022-08-24T08:41:11.941Z,33.19
2022-08-24T08:42:11.943Z,36.74
2022-08-24T08:43:11.915Z,37.06
2022-08-24T08:44:11.899Z,37.71
2022-08-24T08:45:11.902Z,45.44
2022-08-24T08:46:11.915Z,43.02
2022-08-24T08:47:11.892Z,43.02
2022-08-24T08:48:11.869Z,40.61
2022-08-24T08:49:11.864Z,41.73
2022-08-24T08:50:11.850Z,34.32
2022-08-24T08:51:12.262Z,37.38
2022-08-24T08:52:11.853Z,38.51
2022-08-24T08:53:11.829Z,29.65
2022-08-24T08:54:11.822Z,29.17
2022-08-24T08:55:11.810Z,44.79
2022-08-24T08:56:11.902Z,37.71
2022-08-24T08:57:12.227Z,34.64
2022-08-24T08:58:11.776Z,39.32
2022-08-24T08:59:11.765Z,33.35
2022-08-24T09:00:15.606Z,28.04
2022-08-24T09:01:11.816Z,36.90
2022-08-24T09:02:11.754Z,36.25
2022-08-24T09:03:11.731Z,38.51
2022-08-24T09:04:15.760Z,39.48
2022-08-24T09:05:12.718Z,36.90
2022-08-24T09:06:11.704Z,37.06
2022-08-24T09:07:11.717Z,36.74
2022-08-24T09:08:11.699Z,36.74
2022-08-24T09:09:11.682Z,36.42
2022-08-24T09:10:11.669Z,40.77
2022-08-24T09:11:11.664Z,42.38
2022-08-24T09:12:11.672Z,42.54
2022-08-24T09:13:11.644Z,42.38
2022-08-24T09:14:11.633Z,41.57
2022-08-24T09:15:11.626Z,39.48
2022-08-24T09:16:11.620Z,39.96
2022-08-24T09:17:13.317Z,37.06
2022-08-24T09:18:11.599Z,36.90
2022-08-24T09:19:11.593Z,40.44
2022-08-24T09:20:11.577Z,37.06
2022-08-24T09:21:11.580Z,37.87
2022-08-24T09:22:11.582Z,37.87
2022-08-24T09:23:11.555Z,36.74
2022-08-24T09:24:11.548Z,41.73
2022-08-24T09:25:11.546Z,42.06
2022-08-24T09:26:14.092Z,41.25
2022-08-24T09:27:11.542Z,37.71
2022-08-24T09:28:11.545Z,39.96
2022-08-24T09:29:11.512Z,37.38
2022-08-24T09:30:11.501Z,32.87
2022-08-24T09:31:11.704Z,34.32
2022-08-24T09:32:13.032Z,41.89
2022-08-24T09:33:11.502Z,44.47
2022-08-24T09:34:11.469Z,31.26
2022-08-24T09:35:11.461Z,36.58
2022-08-24T09:36:12.453Z,31.10
2022-08-24T09:37:11.450Z,28.52
2022-08-24T09:38:11.458Z,28.20
2022-08-24T09:39:11.459Z,28.36
2022-08-24T09:40:11.456Z,39.64
2022-08-24T09:41:11.414Z,28.52
2022-08-24T09:42:11.403Z,39.96
2022-08-24T09:43:11.418Z,33.35
2022-08-24T09:44:11.395Z,37.71
2022-08-24T09:45:11.382Z,30.62
2022-08-24T09:46:11.453Z,28.84
2022-08-24T09:47:11.368Z,35.93
2022-08-24T09:48:16.023Z,36.90
2022-08-24T09:49:14.265Z,35.45
2022-08-24T09:50:11.346Z,27.88
2022-08-24T09:51:11.343Z,37.87
2022-08-24T09:52:11.360Z,34.32
2022-08-24T09:53:11.345Z,32.07
2022-08-24T09:54:11.311Z,32.55
2022-08-24T09:55:11.314Z,33.19
2022-08-24T09:56:11.300Z,31.10
2022-08-24T09:57:13.239Z,31.74
2022-08-24T09:58:11.305Z,32.39
2022-08-24T09:59:11.283Z,37.22
2022-08-24T10:00:11.274Z,36.25
2022-08-24T10:01:11.335Z,37.54
2022-08-24T10:02:11.365Z,35.61
2022-08-24T10:03:11.252Z,39.96
2022-08-24T10:04:11.254Z,33.68
2022-08-24T10:05:11.381Z,41.89
2022-08-24T10:06:11.384Z,34.16
2022-08-24T10:07:11.224Z,31.90
2022-08-24T10:08:11.219Z,31.58
2022-08-24T10:09:11.227Z,27.07
2022-08-24T10:10:11.202Z,29.00
2022-08-24T10:11:11.189Z,32.55
2022-08-24T10:12:11.178Z,33.52
2022-08-24T10:13:11.179Z,39.64
2022-08-24T10:14:11.180Z,29.33
2022-08-24T10:15:11.164Z,29.81
2022-08-24T10:16:11.188Z,27.71
2022-08-24T10:17:11.146Z,27.23
2022-08-24T10:18:11.135Z,37.22
2022-08-24T10:19:11.142Z,31.74
2022-08-24T10:20:11.120Z,37.06
2022-08-24T10:21:11.120Z,31.10
2022-08-24T10:22:11.101Z,31.74
2022-08-24T10:23:11.103Z,36.74
2022-08-24T10:24:11.100Z,36.25
2022-08-24T10:25:11.103Z,33.84
2022-08-24T10:26:11.075Z,32.87
2022-08-24T10:27:11.066Z,29.00
2022-08-24T10:28:11.056Z,29.81
2022-08-24T10:29:11.067Z,33.19
2022-08-24T10:30:11.043Z,28.52
2022-08-24T10:31:13.058Z,32.39
2022-08-24T10:32:11.121Z,43.02
2022-08-24T10:33:11.021Z,36.90
2022-08-24T10:34:11.029Z,34.32
2022-08-24T10:35:11.005Z,30.13
2022-08-24T10:36:10.994Z,34.48
2022-08-24T10:37:10.987Z,32.87
2022-08-24T10:38:10.982Z,31.26
2022-08-24T10:39:10.983Z,30.29
2022-08-24T10:40:10.994Z,35.29
2022-08-24T10:41:10.960Z,34.48
2022-08-24T10:42:10.940Z,33.52
2022-08-24T10:43:10.939Z,30.78
2022-08-24T10:44:10.946Z,35.45
2022-08-24T10:45:10.919Z,29.49
2022-08-24T10:46:10.980Z,29.49
2022-08-24T10:47:10.902Z,35.77
2022-08-24T10:48:10.892Z,35.93
2022-08-24T10:49:10.906Z,35.13
2022-08-24T10:50:10.873Z,32.23
2022-08-24T10:51:10.864Z,34.32
2022-08-24T10:52:10.859Z,43.18
2022-08-24T10:53:10.848Z,36.09
2022-08-24T10:54:10.856Z,33.35
2022-08-24T10:55:10.828Z,29.81
2022-08-24T10:56:10.822Z,29.65
2022-08-24T10:57:12.507Z,36.09
2022-08-24T10:58:10.801Z,29.33
2022-08-24T10:59:10.820Z,40.61
2022-08-24T11:00:10.787Z,29.33
2022-08-24T11:01:11.793Z,36.25
2022-08-24T11:02:12.699Z,35.61
2022-08-24T11:03:10.763Z,36.58
2022-08-24T11:04:10.744Z,41.57
2022-08-24T11:05:10.833Z,36.74
2022-08-24T11:06:10.754Z,40.61
2022-08-24T11:07:10.740Z,36.74
2022-08-24T11:08:10.716Z,40.44
2022-08-24T11:09:10.701Z,37.06
2022-08-24T11:10:10.706Z,41.25
2022-08-24T11:11:10.708Z,44.31
2022-08-24T11:12:10.670Z,39.96
2022-08-24T11:13:10.668Z,41.57
2022-08-24T11:14:10.656Z,38.67
2022-08-24T11:15:10.755Z,37.22
2022-08-24T11:16:10.673Z,39.48
2022-08-24T11:17:10.633Z,37.54
2022-08-24T11:18:10.624Z,38.83
2022-08-24T11:19:10.620Z,37.06
2022-08-24T11:20:10.615Z,37.22
2022-08-24T11:21:10.601Z,36.25
2022-08-24T11:22:10.584Z,36.74
2022-08-24T11:23:10.578Z,39.48
2022-08-24T11:24:10.581Z,41.09
2022-08-24T11:25:10.577Z,40.44
2022-08-24T11:26:10.547Z,45.12
2022-08-24T11:27:10.542Z,43.18
2022-08-24T11:28:10.535Z,40.61
2022-08-24T11:29:10.522Z,37.06
2022-08-24T11:30:10.526Z,38.03
2022-08-24T11:31:10.540Z,38.19
2022-08-24T11:32:10.498Z,37.87
2022-08-24T11:33:10.489Z,44.15
2022-08-24T11:34:10.487Z,38.67
2022-08-24T11:35:10.489Z,42.22
2022-08-24T11:36:10.471Z,36.74
2022-08-24T11:37:10.503Z,40.44
2022-08-24T11:38:10.449Z,36.58
2022-08-24T11:39:10.441Z,38.67
2022-08-24T11:40:10.463Z,43.67
2022-08-24T11:41:10.416Z,40.61
2022-08-24T11:42:10.415Z,40.44
2022-08-24T11:43:10.404Z,36.74
2022-08-24T11:44:10.392Z,36.90
2022-08-24T11:45:10.394Z,37.54
2022-08-24T11:46:10.377Z,44.15
2022-08-24T11:47:10.361Z,41.89
2022-08-24T11:48:12.400Z,37.06
2022-08-24T11:49:10.347Z,37.22
2022-08-24T11:50:10.577Z,38.67
2022-08-24T11:51:10.329Z,37.38
2022-08-24T11:52:10.316Z,38.67
2022-08-24T11:53:12.171Z,45.92
2022-08-24T11:54:10.307Z,41.25
2022-08-24T11:55:10.307Z,38.35
2022-08-24T11:56:10.283Z,37.54
2022-08-24T11:57:10.287Z,41.25
2022-08-24T11:58:10.269Z,42.86
2022-08-24T11:59:10.270Z,37.54
2022-08-24T12:00:10.326Z,36.74
2022-08-24T12:01:10.241Z,39.64
2022-08-24T12:02:10.311Z,38.19
2022-08-24T12:03:10.311Z,37.71
2022-08-24T12:04:10.215Z,39.48
2022-08-24T12:05:10.234Z,38.19
2022-08-24T12:06:10.206Z,38.67
2022-08-24T12:07:10.197Z,40.44
2022-08-24T12:08:10.180Z,37.87
2022-08-24T12:09:10.168Z,37.71
2022-08-24T12:10:10.441Z,37.06
2022-08-24T12:11:10.150Z,37.06
2022-08-24T12:12:10.142Z,37.38
2022-08-24T12:13:10.155Z,36.58
2022-08-24T12:14:10.137Z,46.57
2022-08-24T12:15:10.134Z,41.57
2022-08-24T12:16:10.197Z,37.54
2022-08-24T12:17:10.094Z,42.86
2022-08-24T12:18:10.093Z,40.93
2022-08-24T12:19:10.096Z,39.48
2022-08-24T12:20:10.136Z,41.89
2022-08-24T12:21:12.771Z,38.19
2022-08-24T12:22:10.095Z,37.71
2022-08-24T12:23:10.043Z,37.54
2022-08-24T12:24:10.047Z,40.77
2022-08-24T12:25:10.038Z,38.35
2022-08-24T12:26:10.027Z,37.71
2022-08-24T12:27:10.007Z,37.87
2022-08-24T12:28:10.002Z,37.22
2022-08-24T12:29:09.995Z,37.71
2022-08-24T12:30:10.071Z,37.71
2022-08-24T12:31:10.019Z,42.22
2022-08-24T12:32:09.964Z,41.41
2022-08-24T12:33:09.961Z,40.93
2022-08-24T12:34:09.965Z,43.67
2022-08-24T12:35:09.946Z,41.41
2022-08-24T12:36:09.930Z,42.54
2022-08-24T12:37:16.056Z,44.79
2022-08-24T12:38:10.908Z,45.92
2022-08-24T12:39:09.904Z,38.35
2022-08-24T12:40:11.067Z,38.35
2022-08-24T12:41:17.901Z,42.22
2022-08-24T12:42:14.540Z,38.83
2022-08-24T12:43:10.865Z,41.41
2022-08-24T12:44:09.889Z,40.28
2022-08-24T12:45:09.860Z,40.28
2022-08-24T12:46:09.892Z,39.80
2022-08-24T12:47:09.828Z,42.70
2022-08-24T12:48:09.823Z,39.32
2022-08-24T12:49:09.812Z,41.25
2022-08-24T12:50:09.820Z,38.03
2022-08-24T12:51:09.797Z,43.18
2022-08-24T12:52:09.785Z,40.93